createdAt,value
2022-11-02T00:01:18.801Z,76.25
2022-11-02T00:06:20.344Z,76.09
2022-11-02T00:11:21.773Z,76.39
2022-11-02T00:16:23.830Z,76.60
2022-11-02T00:21:26.136Z,77.68
2022-11-02T00:26:28.774Z,77.50
2022-11-02T00:31:30.228Z,77.47
2022-11-02T00:36:31.649Z,77.91
2022-11-02T00:41:33.055Z,77.85
2022-11-02T00:46:34.507Z,75.64
2022-11-02T00:51:36.045Z,76.36
2022-11-02T00:56:37.535Z,77.30
2022-11-02T01:01:39.066Z,77.07
2022-11-02T01:06:41.534Z,76.74
2022-11-02T01:11:43.076Z,77.25
2022-11-02T01:21:53.264Z,74.72
2022-11-02T01:26:54.704Z,75.88
2022-11-02T01:31:56.096Z,77.14
2022-11-02T01:36:57.792Z,77.89
2022-11-02T01:41:59.232Z,78.60
2022-11-02T01:47:12.201Z,77.69
2022-11-02T01:52:20.074Z,77.68
2022-11-02T01:57:22.689Z,77.45
2022-11-02T02:02:26.803Z,77.25
2022-11-02T02:07:31.089Z,76.97
2022-11-02T02:12:34.468Z,77.46
2022-11-02T02:18:10.528Z,77.12
2022-11-02T02:23:43.431Z,76.27
2022-11-02T02:28:52.138Z,75.97
2022-11-02T02:34:08.939Z,75.72
2022-11-02T02:39:17.730Z,76.94
2022-11-02T02:44:25.802Z,76.57
2022-11-02T02:49:47.996Z,77.24
2022-11-02T02:54:52.226Z,77.07
2022-11-02T02:59:53.690Z,77.47
2022-11-02T03:04:55.693Z,77.26
2022-11-02T03:10:09.280Z,78.32
2022-11-02T03:15:35.167Z,77.35
2022-11-02T03:20:58.295Z,76.70
2022-11-02T03:26:13.773Z,77.20
2022-11-02T03:31:36.172Z,77.51
2022-11-02T03:36:58.704Z,78.07
2022-11-02T03:42:03.597Z,77.97
2022-11-02T03:47:09.758Z,76.30
2022-11-02T03:52:17.394Z,77.15
2022-11-02T03:57:24.097Z,77.03
2022-11-02T04:02:26.032Z,77.94
2022-11-02T04:07:33.087Z,78.18
2022-11-02T04:12:34.590Z,78.00
2022-11-02T04:17:36.215Z,77.37
2022-11-02T04:22:43.812Z,77.68
2022-11-02T04:27:51.231Z,78.16
2022-11-02T04:32:55.823Z,77.75
2022-11-02T04:37:59.144Z,77.20
2022-11-02T04:43:02.709Z,77.64
2022-11-02T04:48:08.000Z,78.46
2022-11-02T04:53:10.368Z,78.39
2022-11-02T04:58:13.551Z,78.43
2022-11-02T05:03:15.073Z,78.85
2022-11-02T05:08:18.007Z,78.96
2022-11-02T05:13:19.823Z,79.31
2022-11-02T05:23:29.883Z,78.83
2022-11-02T05:28:33.745Z,79.09
2022-11-02T05:33:37.603Z,78.33
2022-11-02T05:38:43.837Z,78.24
2022-11-02T05:43:45.335Z,78.82
2022-11-02T05:48:49.264Z,79.16
2022-11-02T05:53:50.651Z,79.50
2022-11-02T05:58:54.711Z,79.47
2022-11-02T06:03:56.765Z,79.52
2022-11-02T06:09:00.613Z,79.86
2022-11-02T06:14:05.751Z,80.20
2022-11-02T06:19:07.177Z,79.85
2022-11-02T06:24:08.638Z,80.14
2022-11-02T06:29:10.029Z,79.69
2022-11-02T06:34:11.408Z,79.63
2022-11-02T06:39:12.796Z,79.68
2022-11-02T06:44:14.201Z,79.16
2022-11-02T06:49:15.629Z,79.14
2022-11-02T06:54:17.190Z,79.70
2022-11-02T06:59:18.582Z,79.64
2022-11-02T07:04:21.002Z,79.57
2022-11-02T07:09:22.380Z,79.58
2022-11-02T07:14:23.783Z,79.38
2022-11-02T07:19:25.165Z,79.67
2022-11-02T07:24:26.540Z,78.79
2022-11-02T07:29:27.941Z,79.15
2022-11-02T07:34:29.418Z,79.50
2022-11-02T07:39:30.822Z,79.97
2022-11-02T07:44:32.240Z,80.03
2022-11-02T07:49:33.632Z,78.76
2022-11-02T07:54:35.004Z,79.02
2022-11-02T07:59:36.414Z,78.98
2022-11-02T08:04:40.798Z,79.42
2022-11-02T08:09:45.402Z,79.15
2022-11-02T08:14:46.790Z,77.64
2022-11-02T08:19:48.183Z,74.71
2022-11-02T08:24:49.621Z,72.24
2022-11-02T08:29:51.013Z,70.05
2022-11-02T08:34:52.389Z,67.89
2022-11-02T08:39:53.766Z,68.18
2022-11-02T08:44:55.164Z,67.99
2022-11-02T08:49:56.532Z,68.66
2022-11-02T08:54:57.924Z,68.34
2022-11-02T08:59:59.321Z,66.84
2022-11-02T09:05:00.716Z,65.57
2022-11-02T09:10:02.458Z,65.52
2022-11-02T09:15:04.165Z,66.30
2022-11-02T09:20:06.182Z,65.37
2022-11-02T09:25:08.160Z,65.34
2022-11-02T09:30:11.152Z,65.47
2022-11-02T09:35:12.744Z,65.48
2022-11-02T09:40:20.915Z,65.16
2022-11-02T09:45:23.245Z,64.59
2022-11-02T09:50:33.264Z,63.29
2022-11-02T09:55:41.372Z,63.73
2022-11-02T10:00:47.138Z,62.99
2022-11-02T10:06:19.225Z,62.00
2022-11-02T10:11:45.816Z,62.07
2022-11-02T10:16:54.118Z,62.54
2022-11-02T10:21:58.085Z,61.85
2022-11-02T10:27:01.657Z,62.75
2022-11-02T10:32:03.422Z,61.94
2022-11-02T10:37:17.089Z,61.46
2022-11-02T10:42:54.685Z,60.83
2022-11-02T10:48:37.852Z,61.38
2022-11-02T10:53:45.484Z,60.58
2022-11-02T10:58:59.039Z,60.61
2022-11-02T11:04:01.595Z,61.36
2022-11-02T11:09:15.796Z,61.37
2022-11-02T11:19:48.328Z,60.92
2022-11-02T11:24:49.759Z,60.43
2022-11-02T11:29:56.597Z,60.35
2022-11-02T11:35:07.273Z,60.46
2022-11-02T11:40:19.369Z,59.14
2022-11-02T11:45:24.665Z,59.49
2022-11-02T11:50:30.401Z,60.02
2022-11-02T11:55:32.352Z,60.17
2022-11-02T12:00:33.807Z,59.88
2022-11-02T12:06:08.938Z,58.82
2022-11-02T12:11:22.881Z,58.04
2022-11-02T12:17:21.861Z,57.61
2022-11-02T12:22:49.954Z,57.00
2022-11-02T12:28:13.092Z,57.42
2022-11-02T12:33:23.207Z,56.20
2022-11-02T12:38:46.144Z,56.76
2022-11-02T12:43:50.077Z,55.91
2022-11-02T12:49:11.286Z,53.79
2022-11-02T12:54:21.234Z,53.67
2022-11-02T12:59:33.853Z,52.57
2022-11-02T13:04:48.381Z,51.37
2022-11-02T13:10:04.673Z,49.71
2022-11-02T13:15:12.584Z,48.37
2022-11-02T13:20:22.663Z,45.88
2022-11-02T13:25:46.741Z,47.34
2022-11-02T13:30:48.247Z,46.18
2022-11-02T13:35:49.630Z,46.83
2022-11-02T13:41:25.501Z,48.08
2022-11-02T13:46:45.276Z,49.71
2022-11-02T13:51:51.115Z,50.01
2022-11-02T13:56:55.688Z,50.91
2022-11-02T14:01:59.476Z,52.24
2022-11-02T14:07:05.261Z,52.33
2022-11-02T14:12:40.016Z,53.04
2022-11-02T14:17:53.373Z,53.15
2022-11-02T14:23:10.052Z,52.71
2022-11-02T14:28:31.976Z,52.62
2022-11-02T14:33:36.337Z,52.59
2022-11-02T14:38:51.895Z,53.25
2022-11-02T14:44:20.750Z,53.85
2022-11-02T14:49:24.875Z,55.23
2022-11-02T14:54:27.970Z,56.09
2022-11-02T14:59:39.707Z,54.68
2022-11-02T15:04:56.025Z,56.03
2022-11-02T15:10:00.134Z,57.15
2022-11-02T15:15:24.873Z,58.05
2022-11-02T15:20:33.208Z,58.97
2022-11-02T15:25:40.509Z,58.19
2022-11-02T15:30:49.039Z,58.56
2022-11-02T15:35:53.305Z,59.10
2022-11-02T15:41:06.246Z,60.55
2022-11-02T15:46:31.857Z,62.25
2022-11-02T15:51:55.128Z,63.34
2022-11-02T15:57:17.800Z,63.98
2022-11-02T16:02:23.513Z,64.44
2022-11-02T16:07:33.354Z,64.95
2022-11-02T16:12:45.284Z,65.52
2022-11-02T16:17:50.403Z,66.04
2022-11-02T16:23:01.032Z,66.01
2022-11-02T16:28:11.249Z,66.56
2022-11-02T16:33:13.035Z,66.91
2022-11-02T16:38:14.665Z,66.73
2022-11-02T16:43:16.581Z,66.98
2022-11-02T16:48:23.343Z,67.47
2022-11-02T16:53:31.287Z,67.60
2022-11-02T16:58:32.815Z,67.93
2022-11-02T17:03:34.474Z,67.75
2022-11-02T17:08:38.745Z,68.50
2022-11-02T17:13:55.466Z,69.44
2022-11-02T17:18:56.894Z,69.44
2022-11-02T17:23:59.126Z,69.88
2022-11-02T17:29:19.508Z,70.04
2022-11-02T17:34:21.001Z,70.34
2022-11-02T17:39:22.583Z,70.31
2022-11-02T17:44:24.061Z,70.74
2022-11-02T17:49:25.507Z,70.66
2022-11-02T17:54:26.929Z,70.28
2022-11-02T17:59:28.349Z,69.79
2022-11-02T18:04:29.778Z,69.93
2022-11-02T18:09:31.196Z,70.43
2022-11-02T18:14:32.574Z,71.40
2022-11-02T18:19:34.126Z,70.80
2022-11-02T18:24:35.495Z,71.10
2022-11-02T18:29:36.887Z,71.64
2022-11-02T18:34:38.266Z,71.51
2022-11-02T18:39:39.739Z,70.85
2022-11-02T18:44:41.160Z,71.25
2022-11-02T18:49:43.900Z,72.58
2022-11-02T18:54:45.292Z,72.65
2022-11-02T18:59:46.698Z,73.54
2022-11-02T19:04:48.143Z,72.50
2022-11-02T19:09:49.559Z,72.78
2022-11-02T19:14:51.559Z,73.06
2022-11-02T19:19:53.288Z,72.66
2022-11-02T19:24:54.678Z,71.78
2022-11-02T19:29:56.080Z,71.28
2022-11-02T19:34:57.526Z,71.51
2022-11-02T19:39:58.907Z,72.33
2022-11-02T19:45:00.290Z,72.15
2022-11-02T19:50:01.683Z,72.50
2022-11-02T19:55:03.111Z,72.83
2022-11-02T20:00:04.977Z,73.50
2022-11-02T20:05:10.486Z,73.14
2022-11-02T20:10:11.857Z,73.14
2022-11-02T20:15:13.278Z,72.87
2022-11-02T20:20:14.713Z,70.33
2022-11-02T20:25:16.443Z,72.00
2022-11-02T20:30:17.920Z,72.32
2022-11-02T20:35:19.313Z,72.28
2022-11-02T20:40:20.713Z,72.70
2022-11-02T20:45:22.090Z,72.44
2022-11-02T20:50:26.098Z,72.81
2022-11-02T20:55:27.603Z,73.62
2022-11-02T21:00:28.995Z,73.57
2022-11-02T21:05:30.679Z,74.08
2022-11-02T21:10:32.118Z,73.16
2022-11-02T21:15:36.380Z,73.33
2022-11-02T21:20:39.003Z,73.20
2022-11-02T21:25:40.372Z,71.58
2022-11-02T21:30:41.757Z,70.99
2022-11-02T21:35:43.129Z,71.67
2022-11-02T21:40:44.623Z,72.41
2022-11-02T21:45:52.611Z,72.67
2022-11-02T21:51:05.905Z,72.93
2022-11-02T21:56:09.846Z,72.55
2022-11-02T22:01:14.376Z,71.77
2022-11-02T22:06:15.899Z,71.16
2022-11-02T22:11:20.160Z,71.89
2022-11-02T22:16:22.520Z,71.43
2022-11-02T22:21:29.003Z,72.41
2022-11-02T22:26:32.100Z,71.73
2022-11-02T22:31:39.106Z,71.21
2022-11-02T22:36:42.957Z,71.77
2022-11-02T22:41:48.021Z,71.52
2022-11-02T22:46:50.833Z,71.12
2022-11-02T22:51:52.241Z,70.74
2022-11-02T22:56:55.230Z,71.26
2022-11-02T23:01:56.868Z,70.82
2022-11-02T23:06:58.416Z,71.71
2022-11-02T23:11:59.795Z,71.93
2022-11-02T23:17:01.196Z,72.79
2022-11-02T23:22:10.715Z,72.67
2022-11-02T23:27:12.092Z,72.17
2022-11-02T23:32:15.782Z,72.25
2022-11-02T23:37:17.160Z,72.82
2022-11-02T23:42:18.644Z,73.47
2022-11-02T23:47:20.145Z,73.14
2022-11-02T23:52:21.511Z,72.50
2022-11-02T23:57:22.920Z,72.05
